sensor_id;sensor_type;location;lat;lon;timestamp;pressure;altitude;pressure_sealevel;temperature;humidity
72636;BME280;60679;48.888;15.544;2023-09-07T00:00:00;96834.63;;;12.26;51.49
72636;BME280;60679;48.888;15.544;2023-09-07T00:02:25;96840.88;;;12.27;51.33
72636;BME280;60679;48.888;15.544;2023-09-07T00:04:50;96831.72;;;12.28;51.78
72636;BME280;60679;48.888;15.544;2023-09-07T00:07:16;96834.88;;;12.25;51.89
72636;BME280;60679;48.888;15.544;2023-09-07T00:09:41;96830.34;;;12.19;51.69
72636;BME280;60679;48.888;15.544;2023-09-07T00:12:07;96830.53;;;12.17;52.00
72636;BME280;60679;48.888;15.544;2023-09-07T00:14:32;96833.25;;;12.17;51.96
72636;BME280;60679;48.888;15.544;2023-09-07T00:16:58;96834.47;;;12.21;52.24
72636;BME280;60679;48.888;15.544;2023-09-07T00:19:23;96830.50;;;12.24;52.10
72636;BME280;60679;48.888;15.544;2023-09-07T00:21:49;96826.13;;;12.23;52.34
72636;BME280;60679;48.888;15.544;2023-09-07T00:24:17;96825.56;;;12.14;52.31
72636;BME280;60679;48.888;15.544;2023-09-07T00:26:43;96822.91;;;12.07;52.48
72636;BME280;60679;48.888;15.544;2023-09-07T00:29:08;96806.88;;;12.06;52.47
72636;BME280;60679;48.888;15.544;2023-09-07T00:31:34;96827.50;;;12.07;52.31
72636;BME280;60679;48.888;15.544;2023-09-07T00:33:59;96822.69;;;12.09;52.55
72636;BME280;60679;48.888;15.544;2023-09-07T00:36:25;96818.78;;;12.05;52.56
72636;BME280;60679;48.888;15.544;2023-09-07T00:38:50;96820.28;;;11.94;52.65
72636;BME280;60679;48.888;15.544;2023-09-07T00:41:16;96822.16;;;11.94;52.82
72636;BME280;60679;48.888;15.544;2023-09-07T00:43:41;96821.13;;;11.95;52.88
72636;BME280;60679;48.888;15.544;2023-09-07T00:46:07;96823.66;;;11.90;52.87
72636;BME280;60679;48.888;15.544;2023-09-07T00:48:33;96825.53;;;11.89;52.94
72636;BME280;60679;48.888;15.544;2023-09-07T00:50:59;96822.22;;;11.87;53.22
72636;BME280;60679;48.888;15.544;2023-09-07T00:53:26;96813.09;;;11.82;52.91
72636;BME280;60679;48.888;15.544;2023-09-07T00:55:52;96814.81;;;11.76;52.94
72636;BME280;60679;48.888;15.544;2023-09-07T00:58:19;96819.81;;;11.73;53.13
72636;BME280;60679;48.888;15.544;2023-09-07T01:00:44;96815.03;;;11.68;53.06
72636;BME280;60679;48.888;15.544;2023-09-07T01:03:10;96818.78;;;11.67;53.33
72636;BME280;60679;48.888;15.544;2023-09-07T01:06:30;96816.72;;;11.63;53.30
72636;BME280;60679;48.888;15.544;2023-09-07T01:08:37;96823.00;;;11.56;53.36
72636;BME280;60679;48.888;15.544;2023-09-07T01:11:14;96819.47;;;11.56;53.42
72636;BME280;60679;48.888;15.544;2023-09-07T01:13:40;96810.94;;;11.52;53.49
72636;BME280;60679;48.888;15.544;2023-09-07T01:16:06;96811.81;;;11.46;53.30
72636;BME280;60679;48.888;15.544;2023-09-07T01:18:32;96816.44;;;11.33;53.43
72636;BME280;60679;48.888;15.544;2023-09-07T01:21:00;96825.22;;;11.28;53.53
72636;BME280;60679;48.888;15.544;2023-09-07T01:23:28;96821.50;;;11.23;53.75
72636;BME280;60679;48.888;15.544;2023-09-07T01:25:54;96821.28;;;11.18;53.79
72636;BME280;60679;48.888;15.544;2023-09-07T01:28:20;96823.38;;;11.16;53.79
72636;BME280;60679;48.888;15.544;2023-09-07T01:30:46;96823.59;;;11.14;53.77
72636;BME280;60679;48.888;15.544;2023-09-07T01:33:12;96822.53;;;11.15;53.79
72636;BME280;60679;48.888;15.544;2023-09-07T01:35:38;96821.28;;;11.18;53.90
72636;BME280;60679;48.888;15.544;2023-09-07T01:38:04;96817.34;;;11.20;54.03
72636;BME280;60679;48.888;15.544;2023-09-07T01:40:29;96814.00;;;11.25;54.03
72636;BME280;60679;48.888;15.544;2023-09-07T01:42:55;96808.81;;;11.23;54.22
72636;BME280;60679;48.888;15.544;2023-09-07T01:45:20;96810.28;;;11.19;54.24
72636;BME280;60679;48.888;15.544;2023-09-07T01:47:47;96816.50;;;11.20;54.43
72636;BME280;60679;48.888;15.544;2023-09-07T01:50:12;96820.66;;;11.22;54.45
72636;BME280;60679;48.888;15.544;2023-09-07T01:52:39;96819.41;;;11.18;54.42
72636;BME280;60679;48.888;15.544;2023-09-07T01:55:04;96807.59;;;11.13;54.17
72636;BME280;60679;48.888;15.544;2023-09-07T01:57:31;96818.19;;;11.14;54.63
72636;BME280;60679;48.888;15.544;2023-09-07T01:59:57;96812.56;;;11.16;54.61
72636;BME280;60679;48.888;15.544;2023-09-07T02:02:23;96813.22;;;11.11;54.50
72636;BME280;60679;48.888;15.544;2023-09-07T02:04:48;96814.47;;;11.09;54.68
72636;BME280;60679;48.888;15.544;2023-09-07T02:07:14;96812.81;;;11.08;54.70
72636;BME280;60679;48.888;15.544;2023-09-07T02:09:40;96820.31;;;11.06;54.68
72636;BME280;60679;48.888;15.544;2023-09-07T02:12:06;96819.03;;;11.08;54.88
72636;BME280;60679;48.888;15.544;2023-09-07T02:14:31;96814.47;;;11.09;54.90
72636;BME280;60679;48.888;15.544;2023-09-07T02:16:56;96819.66;;;11.03;54.83
72636;BME280;60679;48.888;15.544;2023-09-07T02:19:22;96819.72;;;10.90;54.84
72636;BME280;60679;48.888;15.544;2023-09-07T02:21:49;96807.69;;;10.80;54.73
72636;BME280;60679;48.888;15.544;2023-09-07T02:24:15;96809.56;;;10.73;54.91
72636;BME280;60679;48.888;15.544;2023-09-07T02:26:40;96812.06;;;10.68;54.99
72636;BME280;60679;48.888;15.544;2023-09-07T02:29:11;96814.38;;;10.64;55.04
72636;BME280;60679;48.888;15.544;2023-09-07T02:31:37;96811.25;;;10.67;55.12
72636;BME280;60679;48.888;15.544;2023-09-07T02:34:02;96816.03;;;10.65;54.97
72636;BME280;60679;48.888;15.544;2023-09-07T02:36:28;96811.66;;;10.64;55.18
72636;BME280;60679;48.888;15.544;2023-09-07T02:38:54;96808.34;;;10.62;55.10
72636;BME280;60679;48.888;15.544;2023-09-07T02:41:19;96815.84;;;10.60;55.24
72636;BME280;60679;48.888;15.544;2023-09-07T02:43:45;96818.53;;;10.60;55.21
72636;BME280;60679;48.888;15.544;2023-09-07T02:46:10;96817.47;;;10.61;55.36
72636;BME280;60679;48.888;15.544;2023-09-07T02:48:36;96814.38;;;10.64;55.39
72636;BME280;60679;48.888;15.544;2023-09-07T02:51:01;96822.69;;;10.63;55.44
72636;BME280;60679;48.888;15.544;2023-09-07T02:53:26;96820.63;;;10.58;55.42
72636;BME280;60679;48.888;15.544;2023-09-07T02:55:52;96815.03;;;10.47;55.43
72636;BME280;60679;48.888;15.544;2023-09-07T02:58:17;96819.38;;;10.48;55.42
72636;BME280;60679;48.888;15.544;2023-09-07T03:00:44;96816.91;;;10.53;55.87
72636;BME280;60679;48.888;15.544;2023-09-07T03:03:11;96814.41;;;10.58;55.96
72636;BME280;60679;48.888;15.544;2023-09-07T03:05:41;96819.38;;;10.61;55.84
72636;BME280;60679;48.888;15.544;2023-09-07T03:08:08;96825.81;;;10.60;56.21
72636;BME280;60679;48.888;15.544;2023-09-07T03:10:35;96826.84;;;10.59;56.14
72636;BME280;60679;48.888;15.544;2023-09-07T03:13:00;96824.13;;;10.59;56.22
72636;BME280;60679;48.888;15.544;2023-09-07T03:15:26;96825.38;;;10.56;56.13
72636;BME280;60679;48.888;15.544;2023-09-07T03:17:52;96827.91;;;10.51;56.33
72636;BME280;60679;48.888;15.544;2023-09-07T03:20:17;96831.44;;;10.52;56.08
72636;BME280;60679;48.888;15.544;2023-09-07T03:22:44;96826.44;;;10.49;56.56
72636;BME280;60679;48.888;15.544;2023-09-07T03:25:10;96828.72;;;10.52;56.30
72636;BME280;60679;48.888;15.544;2023-09-07T03:27:37;96827.69;;;10.46;56.36
72636;BME280;60679;48.888;15.544;2023-09-07T03:30:03;96830.19;;;10.41;56.44
72636;BME280;60679;48.888;15.544;2023-09-07T03:32:29;96826.25;;;10.37;56.30
72636;BME280;60679;48.888;15.544;2023-09-07T03:34:59;96829.78;;;10.37;56.45
72636;BME280;60679;48.888;15.544;2023-09-07T03:37:26;96822.72;;;10.36;56.62
72636;BME280;60679;48.888;15.544;2023-09-07T03:39:53;96828.09;;;10.36;56.57
72636;BME280;60679;48.888;15.544;2023-09-07T03:42:18;96823.78;;;10.35;56.71
72636;BME280;60679;48.888;15.544;2023-09-07T03:44:44;96832.06;;;10.34;56.57
72636;BME280;60679;48.888;15.544;2023-09-07T03:47:12;96833.13;;;10.33;57.03
72636;BME280;60679;48.888;15.544;2023-09-07T03:49:37;96839.97;;;10.35;56.69
72636;BME280;60679;48.888;15.544;2023-09-07T03:52:03;96837.47;;;10.34;56.86
72636;BME280;60679;48.888;15.544;2023-09-07T03:54:30;96841.00;;;10.34;56.82
72636;BME280;60679;48.888;15.544;2023-09-07T03:56:56;96838.94;;;10.30;56.69
72636;BME280;60679;48.888;15.544;2023-09-07T03:59:21;96839.72;;;10.30;56.67
72636;BME280;60679;48.888;15.544;2023-09-07T04:01:47;96841.41;;;10.25;56.89
72636;BME280;60679;48.888;15.544;2023-09-07T04:04:12;96842.03;;;10.20;56.88
72636;BME280;60679;48.888;15.544;2023-09-07T04:06:38;96842.25;;;10.19;57.00
72636;BME280;60679;48.888;15.544;2023-09-07T04:09:04;96834.56;;;10.16;56.85
72636;BME280;60679;48.888;15.544;2023-09-07T04:11:30;96833.91;;;10.14;57.05
72636;BME280;60679;48.888;15.544;2023-09-07T04:13:55;96836.81;;;10.12;56.87
72636;BME280;60679;48.888;15.544;2023-09-07T04:16:21;96842.00;;;10.07;56.78
72636;BME280;60679;48.888;15.544;2023-09-07T04:18:46;96842.41;;;10.04;56.92
72636;BME280;60679;48.888;15.544;2023-09-07T04:21:12;96842.81;;;10.01;56.76
72636;BME280;60679;48.888;15.544;2023-09-07T04:23:37;96842.59;;;10.03;56.87
72636;BME280;60679;48.888;15.544;2023-09-07T04:26:11;96844.88;;;10.06;56.89
72636;BME280;60679;48.888;15.544;2023-09-07T04:28:37;96843.63;;;10.08;56.87
72636;BME280;60679;48.888;15.544;2023-09-07T04:31:05;96852.16;;;10.12;56.75
72636;BME280;60679;48.888;15.544;2023-09-07T04:33:32;96856.56;;;10.13;56.97
72636;BME280;60679;48.888;15.544;2023-09-07T04:36:13;96848.25;;;10.21;56.98
72636;BME280;60679;48.888;15.544;2023-09-07T04:38:39;96850.13;;;10.27;56.94
72636;BME280;60679;48.888;15.544;2023-09-07T04:41:12;96854.91;;;10.31;56.73
72636;BME280;60679;48.888;15.544;2023-09-07T04:43:39;96849.94;;;10.35;56.81
72636;BME280;60679;48.888;15.544;2023-09-07T04:46:12;96851.38;;;10.37;56.94
72636;BME280;60679;48.888;15.544;2023-09-07T04:48:38;96853.84;;;10.46;56.99
72636;BME280;60679;48.888;15.544;2023-09-07T04:51:05;96850.53;;;10.50;56.70
72636;BME280;60679;48.888;15.544;2023-09-07T04:53:33;96839.09;;;10.48;56.78
72636;BME280;60679;48.888;15.544;2023-09-07T04:56:00;96849.50;;;10.58;56.66
72636;BME280;60679;48.888;15.544;2023-09-07T04:58:26;96846.16;;;10.62;56.66
72636;BME280;60679;48.888;15.544;2023-09-07T05:00:53;96844.91;;;10.65;56.51
72636;BME280;60679;48.888;15.544;2023-09-07T05:03:18;96852.41;;;10.69;56.66
72636;BME280;60679;48.888;15.544;2023-09-07T05:05:44;96852.19;;;10.77;56.59
72636;BME280;60679;48.888;15.544;2023-09-07T05:08:12;96850.91;;;10.80;56.54
72636;BME280;60679;48.888;15.544;2023-09-07T05:10:38;96852.97;;;10.91;56.69
72636;BME280;60679;48.888;15.544;2023-09-07T05:13:03;96852.94;;;11.04;56.56
72636;BME280;60679;48.888;15.544;2023-09-07T05:15:29;96853.09;;;11.22;56.38
72636;BME280;60679;48.888;15.544;2023-09-07T05:17:55;96855.31;;;11.38;56.28
72636;BME280;60679;48.888;15.544;2023-09-07T05:20:21;96853.59;;;11.50;56.28
72636;BME280;60679;48.888;15.544;2023-09-07T05:22:46;96860.81;;;11.70;56.22
72636;BME280;60679;48.888;15.544;2023-09-07T05:25:12;96856.34;;;11.88;56.03
72636;BME280;60679;48.888;15.544;2023-09-07T05:27:38;96863.72;;;12.06;55.93
72636;BME280;60679;48.888;15.544;2023-09-07T05:30:04;96870.13;;;12.18;56.07
72636;BME280;60679;48.888;15.544;2023-09-07T05:32:30;96868.38;;;12.30;56.13
72636;BME280;60679;48.888;15.544;2023-09-07T05:34:56;96866.16;;;12.45;56.06
72636;BME280;60679;48.888;15.544;2023-09-07T05:37:21;96865.63;;;12.61;55.95
72636;BME280;60679;48.888;15.544;2023-09-07T05:39:47;96864.44;;;12.76;56.04
72636;BME280;60679;48.888;15.544;2023-09-07T05:42:14;96856.78;;;12.91;55.91
72636;BME280;60679;48.888;15.544;2023-09-07T05:44:39;96862.47;;;13.07;56.05
72636;BME280;60679;48.888;15.544;2023-09-07T05:47:05;96860.44;;;13.21;55.98
72636;BME280;60679;48.888;15.544;2023-09-07T05:49:31;96869.28;;;13.35;56.12
72636;BME280;60679;48.888;15.544;2023-09-07T05:51:56;96864.28;;;13.50;56.19
72636;BME280;60679;48.888;15.544;2023-09-07T05:54:22;96870.63;;;13.62;56.11
72636;BME280;60679;48.888;15.544;2023-09-07T05:56:47;96874.25;;;13.74;56.18
72636;BME280;60679;48.888;15.544;2023-09-07T05:59:13;96874.06;;;13.87;56.20
72636;BME280;60679;48.888;15.544;2023-09-07T06:01:39;96877.66;;;13.99;56.21
72636;BME280;60679;48.888;15.544;2023-09-07T06:04:05;96872.03;;;14.12;56.17
72636;BME280;60679;48.888;15.544;2023-09-07T06:06:31;96873.50;;;14.26;56.26
72636;BME280;60679;48.888;15.544;2023-09-07T06:08:56;96877.94;;;14.39;56.17
72636;BME280;60679;48.888;15.544;2023-09-07T06:11:23;96873.13;;;14.53;56.16
72636;BME280;60679;48.888;15.544;2023-09-07T06:13:49;96878.91;;;14.68;56.14
72636;BME280;60679;48.888;15.544;2023-09-07T06:16:14;96872.19;;;14.82;56.08
72636;BME280;60679;48.888;15.544;2023-09-07T06:18:39;96863.81;;;14.95;56.08
72636;BME280;60679;48.888;15.544;2023-09-07T06:21:05;96871.16;;;15.06;56.13
72636;BME280;60679;48.888;15.544;2023-09-07T06:23:31;96876.34;;;15.19;55.86
72636;BME280;60679;48.888;15.544;2023-09-07T06:25:56;96870.31;;;15.29;55.84
72636;BME280;60679;48.888;15.544;2023-09-07T06:28:22;96875.50;;;15.42;55.68
72636;BME280;60679;48.888;15.544;2023-09-07T06:30:47;96874.19;;;15.56;55.83
72636;BME280;60679;48.888;15.544;2023-09-07T06:33:13;96876.31;;;15.66;55.62
72636;BME280;60679;48.888;15.544;2023-09-07T06:35:39;96874.63;;;15.76;55.52
72636;BME280;60679;48.888;15.544;2023-09-07T06:38:04;96871.88;;;15.88;55.47
72636;BME280;60679;48.888;15.544;2023-09-07T06:40:30;96872.06;;;15.98;55.62
72636;BME280;60679;48.888;15.544;2023-09-07T06:42:55;96876.63;;;16.09;55.36
72636;BME280;60679;48.888;15.544;2023-09-07T06:45:22;96876.94;;;16.24;55.02
72636;BME280;60679;48.888;15.544;2023-09-07T06:47:50;96880.44;;;16.36;55.26
72636;BME280;60679;48.888;15.544;2023-09-07T06:50:17;96885.56;;;16.49;54.96
72636;BME280;60679;48.888;15.544;2023-09-07T06:52:44;96876.78;;;16.59;55.19
72636;BME280;60679;48.888;15.544;2023-09-07T06:55:10;96884.16;;;16.75;55.00
72636;BME280;60679;48.888;15.544;2023-09-07T06:57:35;96887.38;;;16.89;55.08
72636;BME280;60679;48.888;15.544;2023-09-07T07:00:03;96883.50;;;17.01;55.05
72636;BME280;60679;48.888;15.544;2023-09-07T07:02:31;96877.03;;;17.07;54.72
72636;BME280;60679;48.888;15.544;2023-09-07T07:04:56;96875.28;;;17.18;55.02
72636;BME280;60679;48.888;15.544;2023-09-07T07:07:21;96874.34;;;17.29;54.46
72636;BME280;60679;48.888;15.544;2023-09-07T07:09:47;96878.03;;;17.40;54.44
72636;BME280;60679;48.888;15.544;2023-09-07T07:12:12;96874.38;;;17.51;54.55
72636;BME280;60679;48.888;15.544;2023-09-07T07:14:38;96876.19;;;17.62;54.63
72636;BME280;60679;48.888;15.544;2023-09-07T07:17:04;96887.06;;;17.78;54.43
72636;BME280;60679;48.888;15.544;2023-09-07T07:19:31;96874.44;;;17.94;54.23
72636;BME280;60679;48.888;15.544;2023-09-07T07:21:56;96878.34;;;18.25;53.97
72636;BME280;60679;48.888;15.544;2023-09-07T07:24:21;96878.34;;;18.52;53.52
72636;BME280;60679;48.888;15.544;2023-09-07T07:26:47;96875.31;;;18.75;53.36
72636;BME280;60679;48.888;15.544;2023-09-07T07:29:13;96882.66;;;19.01;53.14
72636;BME280;60679;48.888;15.544;2023-09-07T07:31:38;96877.34;;;19.26;52.80
72636;BME280;60679;48.888;15.544;2023-09-07T07:34:04;96875.63;;;19.52;52.81
72636;BME280;60679;48.888;15.544;2023-09-07T07:36:29;96870.06;;;19.84;52.45
72636;BME280;60679;48.888;15.544;2023-09-07T07:38:56;96877.56;;;20.13;52.27
72636;BME280;60679;48.888;15.544;2023-09-07T07:41:21;96878.50;;;20.39;51.84
72636;BME280;60679;48.888;15.544;2023-09-07T07:43:47;96874.72;;;20.65;51.66
72636;BME280;60679;48.888;15.544;2023-09-07T07:46:12;96871.69;;;20.92;51.21
72636;BME280;60679;48.888;15.544;2023-09-07T07:48:41;96880.53;;;21.24;50.55
72636;BME280;60679;48.888;15.544;2023-09-07T07:51:07;96877.72;;;21.55;50.34
72636;BME280;60679;48.888;15.544;2023-09-07T07:53:34;96877.91;;;21.94;49.83
72636;BME280;60679;48.888;15.544;2023-09-07T07:55:59;96882.41;;;22.33;49.46
72636;BME280;60679;48.888;15.544;2023-09-07T07:58:25;96880.81;;;22.76;49.32
72636;BME280;60679;48.888;15.544;2023-09-07T08:00:50;96881.72;;;23.06;48.60
72636;BME280;60679;48.888;15.544;2023-09-07T08:03:16;96888.03;;;23.40;48.44
72636;BME280;60679;48.888;15.544;2023-09-07T08:05:42;96878.19;;;23.86;47.75
72636;BME280;60679;48.888;15.544;2023-09-07T08:08:08;96882.28;;;24.36;47.13
72636;BME280;60679;48.888;15.544;2023-09-07T08:10:35;96874.34;;;24.72;46.90
72636;BME280;60679;48.888;15.544;2023-09-07T08:13:02;96883.81;;;25.22;46.23
72636;BME280;60679;48.888;15.544;2023-09-07T08:15:28;96876.78;;;25.62;45.93
72636;BME280;60679;48.888;15.544;2023-09-07T08:17:53;96878.84;;;25.97;45.21
72636;BME280;60679;48.888;15.544;2023-09-07T08:20:19;96882.25;;;26.49;44.79
72636;BME280;60679;48.888;15.544;2023-09-07T08:22:45;96884.44;;;26.87;44.72
72636;BME280;60679;48.888;15.544;2023-09-07T08:25:12;96882.31;;;27.42;43.89
72636;BME280;60679;48.888;15.544;2023-09-07T08:27:41;96886.34;;;27.89;43.30
72636;BME280;60679;48.888;15.544;2023-09-07T08:30:16;96896.72;;;28.45;42.48
72636;BME280;60679;48.888;15.544;2023-09-07T08:32:43;96892.41;;;28.79;42.12
72636;BME280;60679;48.888;15.544;2023-09-07T08:35:10;96890.97;;;29.15;41.73
72636;BME280;60679;48.888;15.544;2023-09-07T08:37:40;96880.31;;;29.52;41.07
72636;BME280;60679;48.888;15.544;2023-09-07T08:40:06;96888.75;;;29.90;40.38
72636;BME280;60679;48.888;15.544;2023-09-07T08:42:35;96894.16;;;30.41;39.88
72636;BME280;60679;48.888;15.544;2023-09-07T08:45:02;96887.31;;;30.68;39.57
72636;BME280;60679;48.888;15.544;2023-09-07T08:47:33;96875.84;;;31.11;38.46
72636;BME280;60679;48.888;15.544;2023-09-07T08:49:59;96881.34;;;31.61;38.36
72636;BME280;60679;48.888;15.544;2023-09-07T08:52:26;96877.47;;;31.98;37.45
72636;BME280;60679;48.888;15.544;2023-09-07T08:54:52;96877.78;;;32.29;36.98
72636;BME280;60679;48.888;15.544;2023-09-07T08:57:20;96870.22;;;32.66;36.37
72636;BME280;60679;48.888;15.544;2023-09-07T08:59:46;96872.09;;;33.38;35.61
72636;BME280;60679;48.888;15.544;2023-09-07T09:02:12;96878.59;;;33.98;34.88
72636;BME280;60679;48.888;15.544;2023-09-07T09:04:37;96875.53;;;34.50;34.58
72636;BME280;60679;48.888;15.544;2023-09-07T09:07:04;96879.25;;;35.20;33.70
72636;BME280;60679;48.888;15.544;2023-09-07T09:09:30;96875.97;;;35.72;33.09
72636;BME280;60679;48.888;15.544;2023-09-07T09:12:07;96885.22;;;35.72;32.52
72636;BME280;60679;48.888;15.544;2023-09-07T09:14:33;96873.50;;;36.31;31.98
72636;BME280;60679;48.888;15.544;2023-09-07T09:16:58;96878.38;;;37.06;31.13
72636;BME280;60679;48.888;15.544;2023-09-07T09:19:31;96869.59;;;37.71;30.47
72636;BME280;60679;48.888;15.544;2023-09-07T09:21:57;96869.53;;;38.00;29.84
72636;BME280;60679;48.888;15.544;2023-09-07T09:24:23;96866.34;;;38.93;29.15
72636;BME280;60679;48.888;15.544;2023-09-07T09:26:48;96864.88;;;39.86;28.04
72636;BME280;60679;48.888;15.544;2023-09-07T09:29:14;96874.72;;;40.62;27.10
72636;BME280;60679;48.888;15.544;2023-09-07T09:31:40;96862.97;;;40.71;26.73
72636;BME280;60679;48.888;15.544;2023-09-07T09:34:06;96868.22;;;41.11;26.25
72636;BME280;60679;48.888;15.544;2023-09-07T09:36:36;96864.91;;;41.52;25.64
72636;BME280;60679;48.888;15.544;2023-09-07T09:39:03;96864.66;;;42.05;25.08
72636;BME280;60679;48.888;15.544;2023-09-07T09:41:32;96859.91;;;42.57;24.67
72636;BME280;60679;48.888;15.544;2023-09-07T09:43:59;96864.63;;;43.18;23.77
72636;BME280;60679;48.888;15.544;2023-09-07T09:46:26;96857.81;;;43.49;23.29
72636;BME280;60679;48.888;15.544;2023-09-07T09:48:54;96862.00;;;44.32;22.50
72636;BME280;60679;48.888;15.544;2023-09-07T09:51:22;96855.63;;;44.74;22.05
72636;BME280;60679;48.888;15.544;2023-09-07T09:53:48;96854.88;;;45.60;21.30
72636;BME280;60679;48.888;15.544;2023-09-07T09:56:14;96856.84;;;46.22;21.00
72636;BME280;60679;48.888;15.544;2023-09-07T09:58:40;96850.13;;;46.48;20.46
72636;BME280;60679;48.888;15.544;2023-09-07T10:01:06;96840.31;;;47.14;20.12
72636;BME280;60679;48.888;15.544;2023-09-07T10:03:34;96845.00;;;47.36;19.52
72636;BME280;60679;48.888;15.544;2023-09-07T10:06:09;96844.41;;;47.58;19.46
72636;BME280;60679;48.888;15.544;2023-09-07T10:08:35;96844.13;;;47.81;18.71
72636;BME280;60679;48.888;15.544;2023-09-07T10:11:08;96843.31;;;48.22;18.98
72636;BME280;60679;48.888;15.544;2023-09-07T10:13:34;96845.25;;;48.75;18.34
72636;BME280;60679;48.888;15.544;2023-09-07T10:16:04;96840.56;;;48.94;17.78
72636;BME280;60679;48.888;15.544;2023-09-07T10:18:37;96843.13;;;49.13;17.67
72636;BME280;60679;48.888;15.544;2023-09-07T10:21:03;96843.97;;;49.48;17.24
72636;BME280;60679;48.888;15.544;2023-09-07T10:23:36;96849.06;;;49.88;17.32
72636;BME280;60679;48.888;15.544;2023-09-07T10:26:03;96843.34;;;50.18;16.62
72636;BME280;60679;48.888;15.544;2023-09-07T10:28:32;96863.09;;;50.29;16.83
72636;BME280;60679;48.888;15.544;2023-09-07T10:31:05;96845.75;;;50.51;16.49
72636;BME280;60679;48.888;15.544;2023-09-07T10:33:32;96837.63;;;51.16;16.12
72636;BME280;60679;48.888;15.544;2023-09-07T10:35:59;96843.47;;;51.62;15.56
72636;BME280;60679;48.888;15.544;2023-09-07T10:38:24;96843.47;;;51.62;15.78
72636;BME280;60679;48.888;15.544;2023-09-07T10:40:57;96842.50;;;51.65;15.66
72636;BME280;60679;48.888;15.544;2023-09-07T10:43:26;96826.94;;;51.99;15.16
72636;BME280;60679;48.888;15.544;2023-09-07T10:45:53;96843.09;;;52.05;15.07
72636;BME280;60679;48.888;15.544;2023-09-07T10:48:20;96832.59;;;51.66;15.22
72636;BME280;60679;48.888;15.544;2023-09-07T10:50:46;96831.88;;;51.16;15.36
72636;BME280;60679;48.888;15.544;2023-09-07T10:53:24;96826.13;;;51.16;14.80
72636;BME280;60679;48.888;15.544;2023-09-07T10:55:50;96826.13;;;51.89;14.75
72636;BME280;60679;48.888;15.544;2023-09-07T10:58:25;96820.31;;;52.16;14.05
72636;BME280;60679;48.888;15.544;2023-09-07T11:00:52;96826.72;;;52.62;14.30
72636;BME280;60679;48.888;15.544;2023-09-07T11:03:18;96818.78;;;53.05;13.67
72636;BME280;60679;48.888;15.544;2023-09-07T11:05:44;96806.94;;;53.26;13.78
72636;BME280;60679;48.888;15.544;2023-09-07T11:08:09;96810.72;;;52.61;13.56
72636;BME280;60679;48.888;15.544;2023-09-07T11:10:36;96804.78;;;52.14;13.85
72636;BME280;60679;48.888;15.544;2023-09-07T11:13:05;96806.28;;;51.82;13.98
72636;BME280;60679;48.888;15.544;2023-09-07T11:15:32;96813.50;;;52.37;13.62
72636;BME280;60679;48.888;15.544;2023-09-07T11:18:05;96812.75;;;52.93;13.29
72636;BME280;60679;48.888;15.544;2023-09-07T11:20:37;96806.69;;;53.53;12.85
72636;BME280;60679;48.888;15.544;2023-09-07T11:23:05;96810.38;;;53.92;12.63
72636;BME280;60679;48.888;15.544;2023-09-07T11:25:42;96807.25;;;54.54;12.48
72636;BME280;60679;48.888;15.544;2023-09-07T11:28:08;96803.81;;;55.26;12.28
72636;BME280;60679;48.888;15.544;2023-09-07T11:30:35;96790.28;;;55.83;12.00
72636;BME280;60679;48.888;15.544;2023-09-07T11:33:04;96801.38;;;55.64;12.22
72636;BME280;60679;48.888;15.544;2023-09-07T11:35:30;96794.31;;;54.85;12.32
72636;BME280;60679;48.888;15.544;2023-09-07T11:37:56;96794.94;;;54.59;12.15
72636;BME280;60679;48.888;15.544;2023-09-07T11:40:21;96794.00;;;55.03;12.24
72636;BME280;60679;48.888;15.544;2023-09-07T11:42:47;96791.94;;;55.95;11.47
72636;BME280;60679;48.888;15.544;2023-09-07T11:45:13;96790.69;;;56.02;11.52
72636;BME280;60679;48.888;15.544;2023-09-07T11:47:39;96802.22;;;55.04;12.19
72636;BME280;60679;48.888;15.544;2023-09-07T11:50:05;96793.81;;;55.27;11.71
72636;BME280;60679;48.888;15.544;2023-09-07T11:52:32;96792.06;;;56.06;11.34
72636;BME280;60679;48.888;15.544;2023-09-07T11:54:57;96792.88;;;56.69;11.16
72636;BME280;60679;48.888;15.544;2023-09-07T11:57:23;96797.66;;;56.72;11.08
72636;BME280;60679;48.888;15.544;2023-09-07T11:59:48;96785.53;;;56.74;11.21
72636;BME280;60679;48.888;15.544;2023-09-07T12:02:14;96786.06;;;57.26;10.54
72636;BME280;60679;48.888;15.544;2023-09-07T12:04:40;96791.47;;;57.55;10.89
72636;BME280;60679;48.888;15.544;2023-09-07T12:07:06;96789.59;;;57.52;10.69
72636;BME280;60679;48.888;15.544;2023-09-07T12:09:32;96789.91;;;57.01;11.08
72636;BME280;60679;48.888;15.544;2023-09-07T12:11:57;96795.66;;;57.43;10.70
72636;BME280;60679;48.888;15.544;2023-09-07T12:14:23;96784.56;;;57.42;10.38
72636;BME280;60679;48.888;15.544;2023-09-07T12:16:48;96783.59;;;57.78;10.36
72636;BME280;60679;48.888;15.544;2023-09-07T12:19:14;96784.47;;;58.45;10.12
72636;BME280;60679;48.888;15.544;2023-09-07T12:21:40;96776.25;;;58.60;10.00
72636;BME280;60679;48.888;15.544;2023-09-07T12:24:07;96777.56;;;58.59;10.10
72636;BME280;60679;48.888;15.544;2023-09-07T12:26:33;96774.13;;;58.77;10.07
72636;BME280;60679;48.888;15.544;2023-09-07T12:28:59;96770.94;;;58.59;10.10
72636;BME280;60679;48.888;15.544;2023-09-07T12:31:25;96768.00;;;58.70;9.95
72636;BME280;60679;48.888;15.544;2023-09-07T12:33:51;96769.06;;;58.78;9.81
72636;BME280;60679;48.888;15.544;2023-09-07T12:36:17;96761.63;;;58.93;9.75
72636;BME280;60679;48.888;15.544;2023-09-07T12:38:43;96764.75;;;59.07;9.76
72636;BME280;60679;48.888;15.544;2023-09-07T12:41:08;96758.47;;;59.49;9.19
72636;BME280;60679;48.888;15.544;2023-09-07T12:43:34;96758.38;;;59.66;9.61
72636;BME280;60679;48.888;15.544;2023-09-07T12:46:00;96765.81;;;59.09;9.43